createdAt,value
2023-01-28T00:00:55.463Z,99912.97
2023-01-28T00:03:22.725Z,99910.28
2023-01-28T00:05:49.757Z,99910.16
2023-01-28T00:08:16.783Z,99918.72
2023-01-28T00:10:43.686Z,99910.75
2023-01-28T00:13:16.435Z,99916.75
2023-01-28T00:15:43.381Z,99920.97
2023-01-28T00:18:10.409Z,99922.56
2023-01-28T00:20:37.416Z,99914.59
2023-01-28T00:23:04.394Z,99918.06
2023-01-28T00:25:31.318Z,99917.44
2023-01-28T00:27:58.376Z,99937.13
2023-01-28T00:30:25.349Z,99920.75
2023-01-28T00:32:54.854Z,99926.97
2023-01-28T00:35:21.869Z,99932.78
2023-01-28T00:37:48.860Z,99929.69
2023-01-28T00:40:16.080Z,99932.03
2023-01-28T00:42:43.045Z,99942.22
2023-01-28T00:45:10.424Z,99939.53
2023-01-28T00:47:37.845Z,99937.59
2023-01-28T00:50:05.552Z,99934.34
2023-01-28T00:52:32.598Z,99936.00
2023-01-28T00:54:59.654Z,99942.56
2023-01-28T00:57:26.691Z,99948.91
2023-01-28T00:59:53.614Z,99958.38
2023-01-28T01:02:22.284Z,99956.41
2023-01-28T01:05:01.480Z,99958.25
2023-01-28T01:07:41.653Z,99960.75
2023-01-28T01:10:15.916Z,99962.84
2023-01-28T01:12:43.557Z,99963.69
2023-01-28T01:15:11.351Z,99955.34
2023-01-28T01:17:40.323Z,99955.72
2023-01-28T01:20:13.085Z,99964.19
2023-01-28T01:22:40.075Z,99967.81
2023-01-28T01:25:07.477Z,99962.16
2023-01-28T01:27:34.715Z,99978.03
2023-01-28T01:30:01.803Z,99974.72
2023-01-28T01:32:32.735Z,99973.53
2023-01-28T01:34:59.770Z,99979.16
2023-01-28T01:37:27.135Z,99984.53
2023-01-28T01:39:54.248Z,99985.41
2023-01-28T01:42:21.493Z,99975.25
2023-01-28T01:44:54.191Z,99990.19
2023-01-28T01:47:43.587Z,99993.34
2023-01-28T01:50:45.812Z,100000.72
2023-01-28T01:53:18.991Z,99999.97
2023-01-28T01:55:50.204Z,100003.53
2023-01-28T01:58:20.050Z,100003.81
2023-01-28T02:00:47.720Z,100007.16
2023-01-28T02:03:17.483Z,100005.06
2023-01-28T02:05:44.498Z,100020.97
2023-01-28T02:08:23.548Z,100016.00
2023-01-28T02:10:59.327Z,100028.09
2023-01-28T02:13:31.140Z,100019.13
2023-01-28T02:16:03.053Z,100025.34
2023-01-28T02:18:30.136Z,100028.84
2023-01-28T02:21:15.787Z,100034.41
2023-01-28T02:24:13.224Z,100039.47
2023-01-28T02:27:12.317Z,100041.16
2023-01-28T02:29:56.264Z,100039.50
2023-01-28T02:32:36.938Z,100043.38
2023-01-28T02:35:25.163Z,100039.72
2023-01-28T02:38:09.685Z,100040.97
2023-01-28T02:41:01.103Z,100058.47
2023-01-28T02:43:37.860Z,100061.88
2023-01-28T02:46:36.682Z,100070.47
2023-01-28T02:49:08.338Z,100074.88
2023-01-28T02:52:07.466Z,100080.53
2023-01-28T02:54:54.556Z,100077.53
2023-01-28T02:57:57.163Z,100084.22
2023-01-28T03:01:01.898Z,100082.78
2023-01-28T03:03:40.714Z,100084.31
2023-01-28T03:06:12.888Z,100084.84
2023-01-28T03:09:12.235Z,100084.63
2023-01-28T03:12:06.180Z,100092.50
2023-01-28T03:14:53.734Z,100085.44
2023-01-28T03:18:11.497Z,100095.63
2023-01-28T03:21:02.968Z,100090.56
2023-01-28T03:23:57.877Z,100089.53
2023-01-28T03:26:46.349Z,100094.31
2023-01-28T03:29:34.044Z,100100.56
2023-01-28T03:32:23.801Z,100093.31
2023-01-28T03:35:10.662Z,100094.88
2023-01-28T03:37:38.266Z,100099.81
2023-01-28T03:40:14.211Z,100091.38
2023-01-28T03:42:43.126Z,100102.44
2023-01-28T03:45:22.809Z,100101.00
2023-01-28T03:47:49.926Z,100105.59
2023-01-28T03:50:17.115Z,100108.97
2023-01-28T03:53:14.976Z,100106.69
2023-01-28T03:55:50.234Z,100113.31
2023-01-28T03:58:18.401Z,100103.16
2023-01-28T04:00:46.324Z,100103.41
2023-01-28T04:03:17.044Z,100107.88
2023-01-28T04:06:06.412Z,100111.53
2023-01-28T04:08:56.480Z,100119.19
2023-01-28T04:12:02.264Z,100132.59
2023-01-28T04:14:35.686Z,100135.19
2023-01-28T04:17:10.884Z,100134.69
2023-01-28T04:19:38.803Z,100137.09
2023-01-28T04:22:10.261Z,100142.25
2023-01-28T04:24:37.449Z,100138.81
2023-01-28T04:27:04.993Z,100148.09
2023-01-28T04:29:31.830Z,100156.72
2023-01-28T04:32:11.833Z,100152.00
2023-01-28T04:34:57.378Z,100148.72
2023-01-28T04:37:47.539Z,100153.16
2023-01-28T04:40:33.195Z,100138.38
2023-01-28T04:43:10.031Z,100148.88
2023-01-28T04:45:57.150Z,100153.69
2023-01-28T04:48:36.769Z,100151.69
2023-01-28T04:51:22.479Z,100140.47
2023-01-28T04:54:15.361Z,100146.09
2023-01-28T04:56:42.362Z,100136.72
2023-01-28T04:59:09.986Z,100147.41
2023-01-28T05:01:38.393Z,100139.91
2023-01-28T05:04:06.232Z,100136.25
2023-01-28T05:06:37.244Z,100139.31
2023-01-28T05:09:30.376Z,100141.28
2023-01-28T05:11:57.267Z,100145.38
2023-01-28T05:14:24.335Z,100144.06
2023-01-28T05:17:03.076Z,100153.00
2023-01-28T05:19:30.460Z,100135.84
2023-01-28T05:21:59.478Z,100117.06
2023-01-28T05:24:36.651Z,100168.78
2023-01-28T05:27:04.285Z,100163.88
2023-01-28T05:29:33.030Z,100168.84
2023-01-28T05:32:00.038Z,100153.31
2023-01-28T05:34:27.031Z,100189.41
2023-01-28T05:36:55.598Z,100182.34
2023-01-28T05:39:31.526Z,100179.06
2023-01-28T05:41:58.484Z,100171.06
2023-01-28T05:44:25.703Z,100179.59
2023-01-28T05:47:08.351Z,100184.31
2023-01-28T05:49:50.727Z,100193.28
2023-01-28T05:52:44.314Z,100188.88
2023-01-28T05:55:22.836Z,100198.97
2023-01-28T05:57:50.202Z,100194.84
2023-01-28T06:00:21.069Z,100206.72
2023-01-28T06:02:47.965Z,100210.88
2023-01-28T06:05:15.975Z,100215.16
2023-01-28T06:07:47.680Z,100222.44
2023-01-28T06:10:18.151Z,100227.41
2023-01-28T06:12:45.968Z,100229.38
2023-01-28T06:15:31.993Z,100238.06
2023-01-28T06:18:08.733Z,100231.22
2023-01-28T06:20:36.228Z,100229.78
2023-01-28T06:23:03.299Z,100217.25
2023-01-28T06:25:30.284Z,100230.09
2023-01-28T06:28:01.321Z,100232.97
2023-01-28T06:30:28.212Z,100233.34
2023-01-28T06:32:56.161Z,100222.84
2023-01-28T06:35:23.709Z,100243.41
2023-01-28T06:37:51.019Z,100233.75
2023-01-28T06:40:18.350Z,100252.25
2023-01-28T06:42:45.694Z,100248.91
2023-01-28T06:45:12.550Z,100247.50
2023-01-28T06:47:40.140Z,100253.94
2023-01-28T06:50:07.675Z,100251.47
2023-01-28T06:52:34.527Z,100263.44
2023-01-28T06:55:01.795Z,100261.66
2023-01-28T06:57:28.678Z,100247.75
2023-01-28T06:59:55.603Z,100253.13
2023-01-28T07:02:22.545Z,100259.72
2023-01-28T07:04:49.416Z,100255.69
2023-01-28T07:07:16.429Z,100258.88
2023-01-28T07:09:43.833Z,100247.06
2023-01-28T07:12:10.866Z,100261.44
2023-01-28T07:14:37.753Z,100256.41
2023-01-28T07:17:04.755Z,100266.63
2023-01-28T07:19:31.985Z,100284.81
2023-01-28T07:22:00.953Z,100285.25
2023-01-28T07:24:27.969Z,100300.88
2023-01-28T07:26:55.175Z,100307.97
2023-01-28T07:29:22.378Z,100322.41
2023-01-28T07:31:49.315Z,100317.50
2023-01-28T07:34:16.306Z,100312.97
2023-01-28T07:36:43.212Z,100304.16
2023-01-28T07:39:10.067Z,100308.63
2023-01-28T07:41:37.063Z,100311.91
2023-01-28T07:44:07.358Z,100316.25
2023-01-28T07:46:34.309Z,100323.09
2023-01-28T07:49:01.454Z,100316.03
2023-01-28T07:51:28.420Z,100324.72
2023-01-28T07:53:55.312Z,100324.56
2023-01-28T07:56:22.164Z,100308.63
2023-01-28T07:58:51.980Z,100325.47
2023-01-28T08:01:19.808Z,100328.56
2023-01-28T08:03:46.725Z,100322.88
2023-01-28T08:06:13.624Z,100326.53
2023-01-28T08:08:40.542Z,100323.69
2023-01-28T08:11:11.779Z,100330.53
2023-01-28T08:13:38.671Z,100336.38
2023-01-28T08:16:06.565Z,100344.31
2023-01-28T08:18:33.701Z,100346.00
2023-01-28T08:21:00.563Z,100353.84
2023-01-28T08:23:27.891Z,100352.47
2023-01-28T08:25:55.267Z,100369.41
2023-01-28T08:28:22.395Z,100362.66
2023-01-28T08:30:49.577Z,100377.81
2023-01-28T08:33:17.961Z,100361.41
2023-01-28T08:35:45.408Z,100375.84
2023-01-28T08:38:15.397Z,100375.66
2023-01-28T08:40:42.551Z,100373.63
2023-01-28T08:43:09.776Z,100377.75
2023-01-28T08:45:36.718Z,100373.97
2023-01-28T08:48:05.696Z,100368.19
2023-01-28T08:50:35.900Z,100371.47
2023-01-28T08:53:10.039Z,100375.06
2023-01-28T08:55:37.134Z,100361.59
2023-01-28T08:58:11.144Z,100373.63
2023-01-28T09:00:38.910Z,100384.06
2023-01-28T09:03:06.775Z,100377.94
2023-01-28T09:05:37.603Z,100371.88
2023-01-28T09:08:06.979Z,100374.69
2023-01-28T09:10:34.119Z,100372.00
2023-01-28T09:13:08.867Z,100372.31
2023-01-28T09:15:36.281Z,100368.19
2023-01-28T09:18:03.669Z,100376.75
2023-01-28T09:20:30.651Z,100381.84
2023-01-28T09:22:58.902Z,100389.06
2023-01-28T09:25:25.803Z,100391.34
2023-01-28T09:27:52.794Z,100387.72
2023-01-28T09:30:19.762Z,100399.50
2023-01-28T09:32:50.614Z,100399.25
2023-01-28T09:35:18.311Z,100396.06
2023-01-28T09:37:46.355Z,100408.00
2023-01-28T09:40:19.143Z,100407.31
2023-01-28T09:42:48.629Z,100417.03
2023-01-28T09:45:38.850Z,100413.72
2023-01-28T09:48:11.135Z,100413.28
2023-01-28T09:50:41.519Z,100405.63
2023-01-28T09:53:30.741Z,100417.91
2023-01-28T09:56:12.570Z,100414.16
2023-01-28T09:58:39.642Z,100408.13
2023-01-28T10:01:22.298Z,100417.22
2023-01-28T10:04:07.598Z,100404.16
2023-01-28T10:06:34.664Z,100392.03
2023-01-28T10:09:43.181Z,100388.88
2023-01-28T10:12:21.935Z,100392.06
2023-01-28T10:15:17.225Z,100386.81
2023-01-28T10:17:48.271Z,100371.25
2023-01-28T10:20:31.148Z,100385.19
2023-01-28T10:23:22.782Z,100385.69
2023-01-28T10:25:49.708Z,100385.44
2023-01-28T10:28:24.219Z,100377.59
2023-01-28T10:30:52.014Z,100377.00
2023-01-28T10:33:22.353Z,100383.19
2023-01-28T10:35:49.766Z,100382.28
2023-01-28T10:38:21.356Z,100373.88
2023-01-28T10:40:48.349Z,100382.19
2023-01-28T10:43:25.448Z,100379.69
2023-01-28T10:46:21.297Z,100388.09
2023-01-28T10:49:06.321Z,100388.94
2023-01-28T10:51:36.580Z,100393.63
2023-01-28T10:54:04.781Z,100407.63
2023-01-28T10:56:35.726Z,100399.06
2023-01-28T10:59:02.628Z,100408.13
2023-01-28T11:01:45.544Z,100408.13
2023-01-28T11:04:20.433Z,100410.00
2023-01-28T11:06:59.333Z,100405.91
2023-01-28T11:09:29.718Z,100406.91
2023-01-28T11:11:57.786Z,100406.09
2023-01-28T11:14:27.177Z,100406.75
2023-01-28T11:16:58.189Z,100399.50
2023-01-28T11:19:32.318Z,100408.06
2023-01-28T11:21:59.691Z,100408.28
2023-01-28T11:24:31.057Z,100420.34
2023-01-28T11:27:01.794Z,100423.91
2023-01-28T11:29:32.887Z,100421.75
2023-01-28T11:32:01.080Z,100431.66
2023-01-28T11:34:30.543Z,100424.53
2023-01-28T11:37:12.965Z,100424.59
2023-01-28T11:39:40.061Z,100411.00
2023-01-28T11:42:20.984Z,100411.66
2023-01-28T11:44:49.286Z,100406.09
2023-01-28T11:47:19.035Z,100403.28
2023-01-28T11:50:13.801Z,100411.09
2023-01-28T11:53:06.835Z,100414.44
2023-01-28T11:55:52.951Z,100410.78
2023-01-28T11:58:19.821Z,100427.75
2023-01-28T12:01:07.864Z,100422.97
2023-01-28T12:03:53.072Z,100430.00
2023-01-28T12:07:02.488Z,100432.19
2023-01-28T12:09:52.042Z,100439.22
2023-01-28T12:12:35.665Z,100436.91
2023-01-28T12:15:08.523Z,100435.75
2023-01-28T12:17:46.643Z,100445.34
2023-01-28T12:20:42.656Z,100447.19
2023-01-28T12:23:29.839Z,100446.28
2023-01-28T12:26:18.182Z,100452.19
2023-01-28T12:28:48.105Z,100457.09
2023-01-28T12:31:33.436Z,100458.94
2023-01-28T12:34:24.602Z,100456.31
2023-01-28T12:37:00.905Z,100444.19
2023-01-28T12:39:46.727Z,100454.81
2023-01-28T12:42:32.553Z,100452.41
2023-01-28T12:45:45.559Z,100448.88
2023-01-28T12:48:21.991Z,100454.59
2023-01-28T12:50:59.019Z,100462.94
2023-01-28T12:53:57.020Z,100459.28
2023-01-28T12:56:42.531Z,100473.03
2023-01-28T12:59:27.562Z,100473.09
2023-01-28T13:02:04.652Z,100476.06
2023-01-28T13:04:40.057Z,100490.59
2023-01-28T13:07:09.751Z,100486.03
2023-01-28T13:09:39.453Z,100482.53
2023-01-28T13:12:07.276Z,100503.13
2023-01-28T13:14:34.929Z,100498.81
2023-01-28T13:17:29.066Z,100504.28
2023-01-28T13:19:57.006Z,100500.75
2023-01-28T13:22:35.333Z,100518.06
2023-01-28T13:25:27.280Z,100511.50
2023-01-28T13:27:59.568Z,100515.50
2023-01-28T13:30:30.633Z,100528.38
2023-01-28T13:32:58.715Z,100529.78
2023-01-28T13:35:40.958Z,100526.94
2023-01-28T13:38:26.284Z,100528.91
2023-01-28T13:41:01.880Z,100554.59
2023-01-28T13:43:34.936Z,100547.25
2023-01-28T13:46:05.466Z,100554.34
2023-01-28T13:48:41.160Z,100562.38
2023-01-28T13:51:24.327Z,100553.44
2023-01-28T13:53:56.965Z,100568.66
2023-01-28T13:56:31.295Z,100566.31
2023-01-28T13:59:07.115Z,100566.09
2023-01-28T14:01:58.700Z,100558.38
2023-01-28T14:04:25.522Z,100573.97
2023-01-28T14:07:19.458Z,100567.91
2023-01-28T14:10:08.691Z,100572.94
2023-01-28T14:13:09.323Z,100570.28
2023-01-28T14:15:57.883Z,100565.75
2023-01-28T14:18:32.847Z,100557.22
2023-01-28T14:21:03.280Z,100573.03
2023-01-28T14:23:32.487Z,100577.34
2023-01-28T14:26:14.352Z,100573.47
2023-01-28T14:28:47.527Z,100573.81
2023-01-28T14:31:23.118Z,100584.00
2023-01-28T14:33:50.498Z,100576.66
2023-01-28T14:36:17.351Z,100593.91
2023-01-28T14:38:46.662Z,100591.75
2023-01-28T14:41:26.826Z,100585.81
2023-01-28T14:43:56.129Z,100585.75
2023-01-28T14:46:45.431Z,100608.75
2023-01-28T14:49:44.002Z,100600.00
2023-01-28T14:52:19.906Z,100590.69
2023-01-28T14:55:09.227Z,100594.06
2023-01-28T14:57:52.737Z,100601.13
2023-01-28T15:00:25.764Z,100602.56
2023-01-28T15:02:52.927Z,100598.97
2023-01-28T15:05:24.819Z,100612.47
2023-01-28T15:07:51.865Z,100610.56
2023-01-28T15:10:26.988Z,100615.88
2023-01-28T15:12:59.439Z,100619.78
2023-01-28T15:15:31.846Z,100621.75
2023-01-28T15:18:07.458Z,100621.03
2023-01-28T15:20:34.886Z,100625.53
2023-01-28T15:23:03.708Z,100630.56
2023-01-28T15:25:30.713Z,100630.00
2023-01-28T15:28:00.892Z,100642.69
2023-01-28T15:30:30.840Z,100638.97
2023-01-28T15:33:01.384Z,100636.25
2023-01-28T15:35:29.109Z,100650.88
2023-01-28T15:37:56.510Z,100648.19
2023-01-28T15:40:26.040Z,100651.53
2023-01-28T15:42:55.863Z,100649.56
2023-01-28T15:45:26.081Z,100643.75
2023-01-28T15:48:03.033Z,100656.34
2023-01-28T15:50:30.273Z,100653.72
2023-01-28T15:52:57.534Z,100658.31
2023-01-28T15:55:45.192Z,100664.09
2023-01-28T15:58:12.117Z,100673.56
2023-01-28T16:00:39.661Z,100674.31
2023-01-28T16:03:09.990Z,100672.34
2023-01-28T16:05:40.561Z,100672.38
2023-01-28T16:08:25.419Z,100687.63
2023-01-28T16:10:54.292Z,100676.41
2023-01-28T16:13:25.165Z,100683.84
2023-01-28T16:15:54.536Z,100684.44
2023-01-28T16:18:44.199Z,100695.19
2023-01-28T16:21:25.381Z,100705.91
2023-01-28T16:24:08.135Z,100703.44
2023-01-28T16:26:36.217Z,100707.13
2023-01-28T16:29:15.393Z,100713.91
2023-01-28T16:31:42.586Z,100714.72
2023-01-28T16:34:11.045Z,100727.47
2023-01-28T16:36:37.888Z,100712.91
2023-01-28T16:39:05.035Z,100731.69
2023-01-28T16:41:35.813Z,100740.06
2023-01-28T16:44:05.952Z,100743.56
2023-01-28T16:46:33.705Z,100740.25
2023-01-28T16:49:00.740Z,100744.38
2023-01-28T16:51:28.063Z,100744.84
2023-01-28T16:53:55.151Z,100742.66
2023-01-28T16:56:44.107Z,100740.47
2023-01-28T16:59:12.325Z,100738.88
2023-01-28T17:01:39.693Z,100749.94
2023-01-28T17:04:11.958Z,100755.47
2023-01-28T17:06:43.495Z,100745.81
2023-01-28T17:09:12.168Z,100748.22
2023-01-28T17:11:42.346Z,100754.28
2023-01-28T17:14:10.678Z,100759.00
2023-01-28T17:16:38.457Z,100748.88
2023-01-28T17:19:05.623Z,100756.94
2023-01-28T17:21:32.569Z,100746.63
2023-01-28T17:24:01.030Z,100756.97
2023-01-28T17:26:29.355Z,100754.06
2023-01-28T17:28:56.699Z,100760.53
2023-01-28T17:31:24.225Z,100765.19
2023-01-28T17:33:57.468Z,100768.88
2023-01-28T17:36:25.878Z,100771.38
2023-01-28T17:38:53.564Z,100773.38
2023-01-28T17:41:21.220Z,100771.97
2023-01-28T17:43:52.286Z,100766.78
2023-01-28T17:46:20.506Z,100768.91
2023-01-28T17:48:48.309Z,100780.22
2023-01-28T17:51:19.144Z,100788.03
2023-01-28T17:53:51.388Z,100783.13
2023-01-28T17:56:26.395Z,100794.53
2023-01-28T17:58:58.767Z,100794.41
2023-01-28T18:01:27.108Z,100791.94
2023-01-28T18:03:55.197Z,100800.56
2023-01-28T18:06:22.628Z,100799.47
2023-01-28T18:08:49.508Z,100808.56
2023-01-28T18:11:18.454Z,100805.75
2023-01-28T18:13:45.727Z,100807.59
2023-01-28T18:16:16.325Z,100802.59
2023-01-28T18:18:43.927Z,100794.31
2023-01-28T18:21:42.854Z,100807.13
2023-01-28T18:24:17.845Z,100811.41
2023-01-28T18:26:44.824Z,100804.66
2023-01-28T18:29:16.885Z,100804.75
2023-01-28T18:31:44.165Z,100800.81
2023-01-28T18:34:11.389Z,100812.41
2023-01-28T18:36:38.324Z,100807.13
2023-01-28T18:39:05.529Z,100808.34
2023-01-28T18:41:32.455Z,100819.47
2023-01-28T18:43:59.319Z,100815.94
2023-01-28T18:46:26.244Z,100812.69
2023-01-28T18:48:53.186Z,100824.94
2023-01-28T18:51:30.134Z,100817.03
2023-01-28T18:54:03.284Z,100818.72
2023-01-28T18:56:31.219Z,100818.00
2023-01-28T18:59:03.647Z,100810.16
2023-01-28T19:01:32.056Z,100827.28
2023-01-28T19:04:00.175Z,100826.19
2023-01-28T19:06:29.000Z,100821.22
2023-01-28T19:08:58.007Z,100819.91
2023-01-28T19:11:26.813Z,100818.72
2023-01-28T19:13:53.998Z,100825.56
2023-01-28T19:16:21.919Z,100822.56
2023-01-28T19:19:00.095Z,100829.47
2023-01-28T19:21:30.911Z,100828.31
2023-01-28T19:24:06.621Z,100844.28
2023-01-28T19:26:33.876Z,100833.78
2023-01-28T19:29:01.745Z,100855.63
2023-01-28T19:31:29.231Z,100844.75
2023-01-28T19:33:59.143Z,100840.22
2023-01-28T19:36:28.062Z,100853.78
2023-01-28T19:39:03.775Z,100839.47
2023-01-28T19:41:31.155Z,100849.44
2023-01-28T19:43:58.840Z,100847.19
2023-01-28T19:46:26.421Z,100854.50
2023-01-28T19:48:53.966Z,100847.81
2023-01-28T19:51:21.654Z,100853.53
2023-01-28T19:53:51.663Z,100856.47
2023-01-28T19:56:21.164Z,100859.94
2023-01-28T19:58:48.156Z,100856.69
2023-01-28T20:01:21.563Z,100863.50
2023-01-28T20:03:54.700Z,100859.94
2023-01-28T20:06:23.969Z,100856.06
2023-01-28T20:09:00.627Z,100864.50
2023-01-28T20:11:27.571Z,100856.50
2023-01-28T20:13:55.773Z,100860.16
2023-01-28T20:16:25.455Z,100858.16
2023-01-28T20:18:58.190Z,100858.41
2023-01-28T20:21:26.478Z,100863.13
2023-01-28T20:23:54.727Z,100859.50
2023-01-28T20:26:25.147Z,100858.44
2023-01-28T20:28:52.053Z,100861.50
2023-01-28T20:31:20.581Z,100858.50
2023-01-28T20:33:48.148Z,100856.41
2023-01-28T20:36:15.351Z,100857.50
2023-01-28T20:38:46.666Z,100868.31
2023-01-28T20:41:22.981Z,100872.66
2023-01-28T20:43:51.348Z,100863.03
2023-01-28T20:46:22.468Z,100873.38
2023-01-28T20:48:50.249Z,100884.00
2023-01-28T20:51:19.668Z,100882.00
2023-01-28T20:53:48.042Z,100887.75
2023-01-28T20:56:17.738Z,100883.53
2023-01-28T20:58:44.941Z,100883.97
2023-01-28T21:01:26.961Z,100898.94
2023-01-28T21:03:54.238Z,100883.09
2023-01-28T21:06:21.130Z,100883.09
2023-01-28T21:08:48.070Z,100884.13
2023-01-28T21:11:15.005Z,100881.63
2023-01-28T21:13:41.934Z,100883.03
2023-01-28T21:16:08.937Z,100875.84
2023-01-28T21:18:35.856Z,100878.91
2023-01-28T21:21:13.683Z,100868.78
2023-01-28T21:23:41.619Z,100876.34
2023-01-28T21:26:08.965Z,100872.97
2023-01-28T21:28:36.045Z,100866.00
2023-01-28T21:31:11.478Z,100879.03
2023-01-28T21:33:38.600Z,100880.34
2023-01-28T21:36:13.711Z,100875.72
2023-01-28T21:38:41.552Z,100884.88
2023-01-28T21:41:09.687Z,100873.13
2023-01-28T21:43:37.312Z,100875.75
2023-01-28T21:46:04.824Z,100882.25
2023-01-28T21:48:31.857Z,100874.19
2023-01-28T21:51:26.555Z,100871.00
2023-01-28T21:53:54.313Z,100867.69
2023-01-28T21:56:21.393Z,100861.13
2023-01-28T21:59:07.043Z,100861.50
2023-01-28T22:01:34.619Z,100862.16
2023-01-28T22:04:01.583Z,100871.81
2023-01-28T22:06:28.449Z,100865.75
2023-01-28T22:08:55.567Z,100855.47
2023-01-28T22:11:22.855Z,100852.19
2023-01-28T22:13:49.734Z,100857.03
2023-01-28T22:16:17.277Z,100863.09
2023-01-28T22:18:44.324Z,100858.25
2023-01-28T22:21:12.351Z,100857.50
2023-01-28T22:23:39.616Z,100860.78
2023-01-28T22:26:06.631Z,100853.84
2023-01-28T22:28:33.537Z,100845.47
2023-01-28T22:31:12.690Z,100854.88
2023-01-28T22:33:40.686Z,100855.28
2023-01-28T22:36:10.014Z,100853.34
2023-01-28T22:38:39.201Z,100851.59
2023-01-28T22:41:08.928Z,100850.75
2023-01-28T22:43:36.140Z,100861.31
2023-01-28T22:46:04.335Z,100851.22
2023-01-28T22:48:31.309Z,100847.00
2023-01-28T22:51:03.183Z,100842.84
2023-01-28T22:53:30.782Z,100851.00
2023-01-28T22:55:57.735Z,100847.72
2023-01-28T22:58:24.874Z,100843.72
2023-01-28T23:00:52.548Z,100856.53
2023-01-28T23:03:19.593Z,100863.03
2023-01-28T23:05:46.530Z,100880.91
2023-01-28T23:08:13.417Z,100867.16
2023-01-28T23:10:47.221Z,100870.91
2023-01-28T23:13:17.360Z,100868.50
2023-01-28T23:16:04.056Z,100864.75
2023-01-28T23:19:09.867Z,100874.03
2023-01-28T23:21:55.659Z,100877.09
2023-01-28T23:24:22.695Z,100882.00
2023-01-28T23:26:54.761Z,100877.03
2023-01-28T23:29:26.643Z,100872.56
2023-01-28T23:31:56.459Z,100875.94
2023-01-28T23:34:23.656Z,100880.38
2023-01-28T23:36:50.728Z,100876.34
2023-01-28T23:39:17.628Z,100875.09
2023-01-28T23:41:44.493Z,100876.44
2023-01-28T23:44:11.437Z,100878.81
2023-01-28T23:46:40.143Z,100880.00
2023-01-28T23:49:09.789Z,100872.91
2023-01-28T23:51:36.705Z,100873.97
2023-01-28T23:54:03.541Z,100888.81
2023-01-28T23:56:30.507Z,100883.34
2023-01-28T23:58:57.355Z,100880.09
